Time;durP1;ratioP1;P1;durP2;ratioP2;P2;SDS_P1;SDS_P2;PMS_P1;PMS_P2;Temp;Humidity;BMP_temperature;BMP_pressure;BME280_temperature;BME280_humidity;BME280_pressure;Samples;Min_cycle;Max_cycle;Signal;HPM_P1;HPM_P2
2021/07/08 00:00:26;;;;;;;4.72;3.55;;;;;;;14.50;91.89;100791.09;5034848;28;20064;-67
2021/07/08 00:02:53;;;;;;;4.50;3.72;;;;;;;14.55;91.57;100787.91;5032883;28;20417;-65
2021/07/08 00:05:22;;;;;;;4.70;3.78;;;;;;;14.50;91.68;100791.09;5036297;28;20570;-68
2021/07/08 00:07:50;;;;;;;3.38;3.08;;;;;;;14.49;91.71;100789.41;5041845;28;20052;-66
2021/07/08 00:10:20;;;;;;;3.90;3.08;;;;;;;14.46;91.53;100783.47;5032682;28;20076;-67
2021/07/08 00:12:46;;;;;;;3.53;3.13;;;;;;;14.46;91.78;100784.31;5036078;28;20045;-69
2021/07/08 00:15:16;;;;;;;4.80;3.85;;;;;;;14.50;91.38;100779.44;5038354;28;20076;-65
2021/07/08 00:17:44;;;;;;;4.95;3.97;;;;;;;14.58;91.35;100776.81;5045689;28;20053;-66
2021/07/08 00:20:13;;;;;;;4.75;3.72;;;;;;;14.55;91.78;100769.84;5035544;28;20037;-68
2021/07/08 00:22:40;;;;;;;6.30;4.07;;;;;;;14.60;91.40;100772.09;5044635;28;20128;-66
2021/07/08 00:25:12;;;;;;;3.67;3.17;;;;;;;14.60;91.47;100775.66;5046817;28;20045;-68
2021/07/08 00:27:39;;;;;;;4.10;3.60;;;;;;;14.60;91.67;100772.09;5035283;28;20096;-68
2021/07/08 00:30:07;;;;;;;4.10;3.30;;;;;;;14.59;91.67;100783.91;5037620;28;20053;-63
2021/07/08 00:32:33;;;;;;;3.33;2.70;;;;;;;14.58;91.60;100780.34;5043875;28;20041;-66
2021/07/08 00:34:59;;;;;;;4.25;3.75;;;;;;;14.54;91.17;100783.50;5049893;28;20049;-66
2021/07/08 00:37:26;;;;;;;4.72;4.32;;;;;;;14.50;90.98;100784.84;5049908;28;20048;-65
2021/07/08 00:39:52;;;;;;;4.45;3.58;;;;;;;14.45;91.11;100782.63;5040718;28;20492;-67
2021/07/08 00:42:20;;;;;;;3.83;3.20;;;;;;;14.39;91.19;100788.59;5031863;28;20394;-67
2021/07/08 00:44:47;;;;;;;3.13;2.70;;;;;;;14.36;91.54;100794.31;5045978;28;20095;-67
2021/07/08 00:47:13;;;;;;;6.63;4.13;;;;;;;14.29;91.66;100794.06;5033163;28;20053;-67
2021/07/08 00:49:39;;;;;;;9.57;4.20;;;;;;;14.33;91.62;100786.53;5045376;28;20086;-67
2021/07/08 00:52:06;;;;;;;4.13;3.53;;;;;;;14.27;91.62;100781.75;5047228;28;20049;-65
2021/07/08 00:54:33;;;;;;;3.88;3.13;;;;;;;14.23;91.79;100780.38;5050777;28;20048;-68
2021/07/08 00:56:59;;;;;;;3.78;3.30;;;;;;;14.23;91.80;100783.06;5036803;28;20053;-67
2021/07/08 00:59:27;;;;;;;5.93;3.30;;;;;;;14.21;91.97;100785.06;5046144;28;20463;-68
2021/07/08 01:01:54;;;;;;;4.93;3.45;;;;;;;14.19;91.68;100784.34;5045180;28;20095;-66
2021/07/08 01:04:20;;;;;;;4.22;3.83;;;;;;;14.18;91.61;100786.22;5047632;28;20061;-63
2021/07/08 01:06:48;;;;;;;4.22;3.38;;;;;;;14.16;91.78;100790.91;5050192;28;20481;-67
2021/07/08 01:09:15;;;;;;;4.35;3.50;;;;;;;14.14;92.12;100790.22;5044929;28;20110;-64
2021/07/08 01:11:42;;;;;;;6.10;4.40;;;;;;;14.14;92.09;100792.94;5046305;28;20060;-68
2021/07/08 01:14:09;;;;;;;5.35;4.10;;;;;;;14.12;92.24;100797.63;5049015;28;20484;-64
2021/07/08 01:16:37;;;;;;;5.30;3.55;;;;;;;14.10;92.20;100794.25;5039508;28;20041;-68
2021/07/08 01:19:04;;;;;;;4.55;3.50;;;;;;;14.05;92.54;100794.69;5047369;28;20117;-65
2021/07/08 01:21:33;;;;;;;4.88;3.80;;;;;;;14.05;92.39;100788.44;5047634;28;20524;-64
2021/07/08 01:24:02;;;;;;;7.70;5.03;;;;;;;14.05;92.35;100783.03;5049229;28;20098;-65
2021/07/08 01:26:28;;;;;;;7.53;5.20;;;;;;;14.11;92.39;100787.84;5049356;28;20075;-67
2021/07/08 01:28:55;;;;;;;5.53;4.13;;;;;;;13.98;92.40;100773.88;5051816;28;20052;-66
2021/07/08 01:31:23;;;;;;;4.97;4.20;;;;;;;13.90;92.88;100771.09;5052093;28;20045;-67
2021/07/08 01:33:51;;;;;;;6.78;5.05;;;;;;;13.83;92.96;100765.44;5046122;28;20057;-67
2021/07/08 01:36:17;;;;;;;5.47;4.50;;;;;;;13.85;93.14;100766.16;5042033;28;20037;-66
2021/07/08 01:38:46;;;;;;;7.03;5.68;;;;;;;13.86;92.91;100769.72;5045509;28;20045;-67
2021/07/08 01:41:12;;;;;;;6.75;4.20;;;;;;;13.88;92.65;100762.31;5039109;28;20053;-65
2021/07/08 01:43:41;;;;;;;6.75;4.90;;;;;;;13.81;92.29;100766.59;5050801;28;20109;-68
2021/07/08 01:46:09;;;;;;;9.65;5.05;;;;;;;13.83;92.34;100761.91;5040351;28;20094;-65
2021/07/08 01:48:36;;;;;;;6.18;4.30;;;;;;;13.81;92.13;100767.44;5038554;28;20307;-67
2021/07/08 01:51:06;;;;;;;3.88;3.47;;;;;;;13.79;92.03;100760.50;5039964;28;20045;-66
2021/07/08 01:53:33;;;;;;;4.43;3.50;;;;;;;13.77;92.13;100765.22;5038545;28;20052;-63
2021/07/08 01:56:00;;;;;;;6.35;4.90;;;;;;;13.75;92.34;100768.91;5042394;28;20045;-65
2021/07/08 01:58:27;;;;;;;6.40;4.57;;;;;;;13.75;92.49;100765.38;5040715;28;20044;-67
2021/07/08 02:00:54;;;;;;;6.07;4.15;;;;;;;13.80;92.13;100773.00;5042893;28;20049;-64
2021/07/08 02:03:20;;;;;;;7.65;5.13;;;;;;;13.78;91.87;100775.00;5048713;28;20041;-65
2021/07/08 02:05:47;;;;;;;6.03;4.93;;;;;;;13.69;92.22;100783.00;5041158;28;20041;-66
2021/07/08 02:08:13;;;;;;;5.03;3.97;;;;;;;13.64;92.22;100776.38;5041522;28;20943;-67
2021/07/08 02:10:40;;;;;;;7.50;5.30;;;;;;;13.64;92.44;100782.63;5038133;28;20122;-65
2021/07/08 02:13:08;;;;;;;7.53;4.85;;;;;;;13.61;92.54;100780.19;5039682;28;20045;-66
2021/07/08 02:15:34;;;;;;;7.15;4.70;;;;;;;13.58;92.90;100782.34;5031631;28;20041;-65
2021/07/08 02:18:00;;;;;;;9.05;4.30;;;;;;;13.57;92.98;100786.91;5042896;28;20052;-68
2021/07/08 02:20:27;;;;;;;5.40;4.53;;;;;;;13.56;92.91;100785.22;5047416;28;20049;-66
2021/07/08 02:22:53;;;;;;;5.10;4.20;;;;;;;13.58;92.75;100783.22;5047772;28;20044;-68
2021/07/08 02:25:20;;;;;;;4.82;4.05;;;;;;;13.58;92.78;100767.03;5048027;28;20114;-67
2021/07/08 02:27:46;;;;;;;5.05;3.90;;;;;;;13.55;93.00;100772.72;5046274;28;20291;-68
2021/07/08 02:30:16;;;;;;;7.45;5.40;;;;;;;13.61;92.81;100780.19;5045260;28;20111;-67
2021/07/08 02:32:44;;;;;;;6.00;4.68;;;;;;;13.64;93.16;100779.06;5040397;28;20045;-68
2021/07/08 02:35:12;;;;;;;9.90;7.32;;;;;;;13.75;93.61;100778.88;5046185;28;20172;-67
2021/07/08 02:37:39;;;;;;;7.03;5.47;;;;;;;13.76;93.64;100775.16;5031895;28;20443;-66
2021/07/08 02:40:09;;;;;;;7.80;6.05;;;;;;;13.75;93.90;100774.31;5040140;28;20105;-70
2021/07/08 02:42:36;;;;;;;8.70;5.88;;;;;;;13.80;93.11;100771.16;5047964;28;20390;-69
2021/07/08 02:45:02;;;;;;;5.50;4.90;;;;;;;13.74;93.01;100772.63;5046968;28;20049;-69
2021/07/08 02:47:30;;;;;;;4.88;4.18;;;;;;;13.74;93.05;100769.09;5044087;28;20399;-67
2021/07/08 02:49:56;;;;;;;5.53;4.30;;;;;;;13.77;93.06;100778.72;5041627;28;20053;-66
2021/07/08 02:52:22;;;;;;;5.25;4.68;;;;;;;13.76;93.07;100785.97;5039507;28;20452;-69
2021/07/08 02:54:49;;;;;;;6.03;4.32;;;;;;;13.80;93.08;100783.78;5049293;28;20570;-66
2021/07/08 02:57:15;;;;;;;5.63;4.53;;;;;;;13.76;92.65;100791.34;5046180;28;20080;-66
2021/07/08 02:59:41;;;;;;;8.48;4.18;;;;;;;13.73;92.02;100797.91;5040084;28;20052;-65
2021/07/08 03:02:08;;;;;;;9.40;5.72;;;;;;;13.70;92.11;100798.19;5044152;28;20123;-66
2021/07/08 03:04:37;;;;;;;6.32;4.70;;;;;;;13.73;92.09;100799.72;5030178;28;20103;-66
2021/07/08 03:07:04;;;;;;;5.60;4.55;;;;;;;13.77;91.83;100808.38;5029571;28;20596;-66
2021/07/08 03:09:30;;;;;;;7.35;5.88;;;;;;;13.70;92.04;100803.56;5034932;28;20045;-66
2021/07/08 03:11:57;;;;;;;9.32;6.40;;;;;;;13.69;91.73;100814.53;5042587;28;20056;-66
2021/07/08 03:14:23;;;;;;;6.90;5.32;;;;;;;13.71;91.64;100816.06;5041995;28;20052;-66
2021/07/08 03:16:49;;;;;;;6.60;5.68;;;;;;;13.77;91.75;100808.38;5036020;28;20041;-67
2021/07/08 03:19:16;;;;;;;6.90;5.22;;;;;;;13.83;92.32;100814.00;5038351;28;20045;-66
2021/07/08 03:21:43;;;;;;;8.05;6.30;;;;;;;13.87;92.49;100814.56;5037644;28;20045;-66
2021/07/08 03:24:10;;;;;;;10.88;7.13;;;;;;;13.91;92.89;100808.72;5039109;28;20107;-69
2021/07/08 03:26:36;;;;;;;9.65;5.90;;;;;;;13.97;92.60;100816.22;5042173;28;20113;-62
2021/07/08 03:29:03;;;;;;;7.07;5.38;;;;;;;14.03;92.26;100812.03;5035481;28;20053;-65
2021/07/08 03:31:30;;;;;;;6.75;5.50;;;;;;;14.05;91.73;100812.72;5033555;28;20045;-68
2021/07/08 03:33:56;;;;;;;6.72;4.95;;;;;;;14.07;91.80;100809.88;5044038;28;20052;-67
2021/07/08 03:36:22;;;;;;;6.60;5.53;;;;;;;14.16;91.55;100815.22;5047459;28;20041;-63
2021/07/08 03:38:50;;;;;;;8.55;6.88;;;;;;;14.21;91.53;100812.91;5035073;28;20049;-64
2021/07/08 03:41:16;;;;;;;8.38;6.72;;;;;;;14.26;91.69;100815.16;5029910;28;20049;-64
2021/07/08 03:43:43;;;;;;;9.50;5.93;;;;;;;14.31;91.62;100818.22;5043598;28;20094;-64
2021/07/08 03:46:09;;;;;;;7.47;5.60;;;;;;;14.35;91.64;100814.22;5047482;28;20044;-65
2021/07/08 03:48:36;;;;;;;7.32;6.15;;;;;;;14.44;91.40;100810.59;5037277;28;20455;-68
2021/07/08 03:51:02;;;;;;;7.03;5.85;;;;;;;14.52;90.93;100804.44;5044076;28;20053;-68
2021/07/08 03:53:28;;;;;;;7.63;6.47;;;;;;;14.63;90.50;100798.78;5048696;28;20063;-69
2021/07/08 03:55:56;;;;;;;8.43;6.78;;;;;;;14.73;90.18;100799.53;5035782;28;20049;-66
2021/07/08 03:58:22;;;;;;;8.30;5.68;;;;;;;14.86;90.30;100804.53;5047776;28;20053;-64
2021/07/08 04:00:49;;;;;;;7.65;6.43;;;;;;;15.01;90.24;100807.50;5040323;28;20118;-66
2021/07/08 04:03:17;;;;;;;13.30;10.68;;;;;;;15.15;90.34;100809.59;5046488;28;20049;-66
2021/07/08 04:05:46;;;;;;;16.13;11.85;;;;;;;15.27;90.47;100800.22;5049793;28;20098;-63
2021/07/08 04:08:13;;;;;;;14.43;12.20;;;;;;;15.39;89.92;100804.34;5042406;28;20484;-67
2021/07/08 04:10:41;;;;;;;14.75;11.45;;;;;;;15.51;89.54;100807.63;5041446;28;20099;-67
2021/07/08 04:13:11;;;;;;;14.98;10.77;;;;;;;15.57;89.26;100800.69;5042174;28;20045;-68
2021/07/08 04:15:39;;;;;;;13.52;10.35;;;;;;;15.59;89.06;100804.09;5046637;28;20103;-66
2021/07/08 04:18:06;;;;;;;11.30;9.75;;;;;;;15.57;88.76;100804.25;5040839;28;20056;-69
2021/07/08 04:20:33;;;;;;;12.82;9.35;;;;;;;15.51;88.96;100813.03;5033984;28;20049;-62
2021/07/08 04:23:00;;;;;;;11.32;10.10;;;;;;;15.46;89.03;100818.91;5046351;28;20048;-64
2021/07/08 04:25:27;;;;;;;14.68;9.88;;;;;;;15.42;88.94;100822.97;5049739;28;20044;-63
2021/07/08 04:27:53;;;;;;;15.45;10.18;;;;;;;15.37;89.32;100811.75;5035739;28;20076;-67
2021/07/08 04:30:23;;;;;;;10.95;8.93;;;;;;;15.40;89.38;100811.47;5038526;28;20080;-67
2021/07/08 04:32:51;;;;;;;10.32;8.95;;;;;;;15.45;88.91;100811.81;5045186;28;20046;-67
2021/07/08 04:35:20;;;;;;;12.88;9.52;;;;;;;15.55;88.67;100797.31;5038169;28;20103;-64
2021/07/08 04:37:47;;;;;;;13.95;10.52;;;;;;;15.56;88.08;100805.25;5039306;28;20048;-64
2021/07/08 04:40:16;;;;;;;10.77;9.10;;;;;;;15.58;88.11;100800.53;5043401;28;20052;-61
2021/07/08 04:42:42;;;;;;;17.45;10.07;;;;;;;15.62;88.07;100795.66;5049119;28;20118;-61
2021/07/08 04:45:11;;;;;;;17.98;9.30;;;;;;;15.61;88.40;100796.69;5043380;28;20098;-65
2021/07/08 04:47:39;;;;;;;14.23;9.70;;;;;;;15.64;87.94;100801.78;5051245;28;20048;-63
2021/07/08 04:50:09;;;;;;;10.27;8.73;;;;;;;15.74;88.02;100807.88;5038125;28;20057;-65
2021/07/08 04:52:36;;;;;;;9.45;7.00;;;;;;;15.82;87.71;100807.94;5041274;28;20481;-61
2021/07/08 04:55:04;;;;;;;10.80;7.40;;;;;;;15.88;87.11;100812.69;5047560;28;20057;-64
2021/07/08 04:57:30;;;;;;;12.20;8.60;;;;;;;15.87;86.98;100813.72;5043049;28;20041;-65
2021/07/08 04:59:56;;;;;;;13.35;8.90;;;;;;;15.93;87.47;100814.91;5043234;28;20072;-68
2021/07/08 05:02:23;;;;;;;12.80;8.60;;;;;;;16.00;86.91;100808.66;5048754;28;20048;-65
2021/07/08 05:04:50;;;;;;;11.60;8.77;;;;;;;16.04;86.90;100798.34;5050921;28;20098;-69
2021/07/08 05:07:17;;;;;;;13.27;9.25;;;;;;;16.14;86.77;100798.19;5046392;28;20255;-60
2021/07/08 05:09:43;;;;;;;11.80;8.93;;;;;;;16.28;86.55;100803.78;5040729;28;20041;-69
2021/07/08 05:12:10;;;;;;;13.32;9.10;;;;;;;16.34;85.88;100794.16;5044409;28;20052;-68
2021/07/08 05:14:36;;;;;;;12.35;8.40;;;;;;;16.47;85.71;100794.50;5041347;28;20102;-60
2021/07/08 05:17:03;;;;;;;15.52;8.40;;;;;;;16.45;85.47;100798.38;5048423;28;20085;-64
2021/07/08 05:19:30;;;;;;;10.60;8.48;;;;;;;16.52;85.51;100784.00;5031443;28;20114;-64
2021/07/08 05:21:59;;;;;;;11.57;8.48;;;;;;;16.70;84.63;100799.28;5047970;28;20110;-62
2021/07/08 05:24:26;;;;;;;10.32;8.25;;;;;;;16.89;84.50;100805.19;5046232;28;20251;-68
2021/07/08 05:26:53;;;;;;;13.50;8.52;;;;;;;16.97;83.65;100806.19;5047596;28;20052;-65
2021/07/08 05:29:22;;;;;;;13.10;8.70;;;;;;;17.04;83.47;100796.34;5047314;28;20052;-69
2021/07/08 05:31:48;;;;;;;14.93;8.55;;;;;;;17.08;83.81;100795.00;5039891;28;20049;-67
2021/07/08 05:34:14;;;;;;;9.63;7.57;;;;;;;17.14;83.59;100792.41;5048671;28;20073;-63
2021/07/08 05:36:40;;;;;;;16.35;7.63;;;;;;;17.25;83.46;100788.50;5049434;28;20045;-63
2021/07/08 05:39:08;;;;;;;13.13;7.63;;;;;;;17.25;82.84;100793.91;5049482;28;20574;-61
2021/07/08 05:41:34;;;;;;;10.15;6.90;;;;;;;17.29;83.07;100795.28;5047961;28;20565;-64
2021/07/08 05:44:01;;;;;;;9.30;7.55;;;;;;;17.31;82.83;100800.53;5040312;28;20049;-62
2021/07/08 05:46:27;;;;;;;11.60;7.85;;;;;;;17.29;82.24;100797.16;5034661;28;20091;-66
2021/07/08 05:48:54;;;;;;;9.38;6.18;;;;;;;17.34;82.61;100797.44;5046800;28;20492;-64
2021/07/08 05:51:20;;;;;;;15.27;7.72;;;;;;;17.34;82.47;100806.44;5046302;28;20104;-65
2021/07/08 05:53:46;;;;;;;10.95;7.53;;;;;;;17.39;82.35;100800.47;5046865;28;20746;-65
2021/07/08 05:56:14;;;;;;;11.88;7.57;;;;;;;17.48;82.58;100815.72;5037516;28;20404;-65
2021/07/08 05:58:40;;;;;;;11.77;7.40;;;;;;;17.52;82.70;100812.50;5038620;28;20139;-67
2021/07/08 06:01:07;;;;;;;9.75;5.90;;;;;;;17.53;82.46;100813.34;5041121;28;20098;-65
2021/07/08 06:03:33;;;;;;;8.82;7.78;;;;;;;17.37;82.45;100816.94;5048978;28;20048;-62
2021/07/08 06:06:00;;;;;;;12.75;8.27;;;;;;;17.38;82.42;100815.91;5040412;28;20393;-64
2021/07/08 06:08:26;;;;;;;10.80;7.07;;;;;;;17.50;82.17;100814.50;5049173;28;20114;-63
2021/07/08 06:10:52;;;;;;;8.70;7.28;;;;;;;17.58;82.11;100821.78;5040556;28;20049;-64
2021/07/08 06:13:20;;;;;;;14.13;7.93;;;;;;;17.74;82.35;100813.59;5039105;28;20053;-66
2021/07/08 06:15:46;;;;;;;11.48;7.40;;;;;;;17.91;82.04;100810.81;5047032;28;20094;-63
2021/07/08 06:18:12;;;;;;;13.15;7.70;;;;;;;17.99;81.70;100813.47;5048598;28;20118;-62
2021/07/08 06:20:39;;;;;;;8.93;6.38;;;;;;;18.07;81.32;100817.00;5045303;28;20412;-67
2021/07/08 06:23:05;;;;;;;11.77;8.05;;;;;;;17.87;81.37;100810.31;5039027;28;20489;-65
2021/07/08 06:25:31;;;;;;;18.08;9.02;;;;;;;17.79;82.03;100802.22;5039332;28;20500;-64
2021/07/08 06:27:58;;;;;;;9.82;6.60;;;;;;;17.88;82.28;100809.31;5035448;28;20088;-63
2021/07/08 06:30:26;;;;;;;14.32;7.53;;;;;;;17.94;82.11;100816.72;5040233;28;20057;-64
2021/07/08 06:32:52;;;;;;;7.47;6.47;;;;;;;18.02;82.05;100819.41;5038268;28;20115;-64
2021/07/08 06:35:18;;;;;;;7.63;5.60;;;;;;;18.06;81.23;100825.31;5032867;28;20194;-60
2021/07/08 06:37:45;;;;;;;8.05;6.70;;;;;;;18.06;80.66;100826.16;5037801;28;20048;-63
2021/07/08 06:40:14;;;;;;;8.45;5.60;;;;;;;18.05;81.06;100826.34;5029190;28;20049;-66
2021/07/08 06:42:40;;;;;;;9.50;6.75;;;;;;;18.06;81.33;100826.16;5040515;28;20052;-66
2021/07/08 06:45:11;;;;;;;12.38;7.10;;;;;;;18.06;81.48;100830.75;5033526;28;20090;-66
2021/07/08 06:47:41;;;;;;;11.38;7.85;;;;;;;17.97;81.99;100821.78;5040218;28;20459;-62
2021/07/08 06:50:09;;;;;;;14.45;8.43;;;;;;;17.90;82.53;100820.00;5038858;28;20053;-66
2021/07/08 06:52:35;;;;;;;15.32;7.80;;;;;;;17.91;82.86;100821.69;5043767;28;20154;-64
2021/07/08 06:55:01;;;;;;;10.43;8.10;;;;;;;17.86;82.37;100829.50;5043474;28;20102;-65
2021/07/08 06:57:28;;;;;;;10.30;7.40;;;;;;;17.99;82.58;100835.19;5040049;28;20258;-64
2021/07/08 06:59:54;;;;;;;10.02;7.75;;;;;;;18.23;82.33;100828.78;5039759;28;20049;-67
2021/07/08 07:02:20;;;;;;;14.38;8.13;;;;;;;18.51;81.01;100823.66;5046341;28;20048;-66
2021/07/08 07:04:48;;;;;;;14.30;7.50;;;;;;;18.84;78.82;100827.00;5030252;28;20073;-64
2021/07/08 07:07:15;;;;;;;11.95;7.32;;;;;;;19.07;78.09;100830.50;5043587;28;20106;-66
2021/07/08 07:09:42;;;;;;;9.68;7.60;;;;;;;19.43;77.19;100825.19;5040236;28;20092;-64
2021/07/08 07:12:09;;;;;;;12.80;7.53;;;;;;;20.11;73.95;100829.44;5041792;28;20052;-64
2021/07/08 07:14:35;;;;;;;11.65;7.38;;;;;;;20.38;73.87;100830.59;5038040;28;20045;-64
2021/07/08 07:17:02;;;;;;;12.77;6.30;;;;;;;20.86;70.79;100830.84;5036885;28;20072;-62
2021/07/08 07:19:28;;;;;;;9.52;6.03;;;;;;;20.96;70.23;100823.19;5028103;28;20455;-63
2021/07/08 07:21:56;;;;;;;9.48;6.18;;;;;;;21.11;69.40;100830.44;5041583;28;20330;-67
2021/07/08 07:24:22;;;;;;;10.43;6.47;;;;;;;21.42;67.68;100828.13;5043138;28;20053;-64
2021/07/08 07:26:49;;;;;;;5.85;4.72;;;;;;;21.68;66.52;100823.88;5041182;28;20053;-68
2021/07/08 07:29:15;;;;;;;10.80;4.55;;;;;;;21.41;68.18;100820.13;5039611;28;20049;-66
2021/07/08 07:31:42;;;;;;;10.15;5.38;;;;;;;21.23;68.58;100828.81;5032168;28;20049;-65
2021/07/08 07:34:09;;;;;;;8.80;4.55;;;;;;;21.25;68.68;100826.75;5046472;28;20119;-68
2021/07/08 07:36:36;;;;;;;7.93;4.57;;;;;;;21.50;67.83;100818.94;5047401;28;20059;-68
2021/07/08 07:39:04;;;;;;;6.43;4.38;;;;;;;21.66;65.98;100815.03;5043406;28;20053;-67
2021/07/08 07:41:30;;;;;;;4.72;3.90;;;;;;;21.77;65.33;100818.00;5045806;28;20049;-67
2021/07/08 07:43:57;;;;;;;7.75;3.60;;;;;;;22.03;65.08;100827.41;5042362;28;20052;-68
2021/07/08 07:46:23;;;;;;;7.32;4.10;;;;;;;22.01;64.08;100832.19;5029314;28;20563;-67
2021/07/08 07:48:50;;;;;;;7.95;3.13;;;;;;;22.10;64.34;100833.75;5029690;28;20362;-68
2021/07/08 07:51:17;;;;;;;5.30;2.50;;;;;;;22.29;64.07;100834.84;5036150;28;20056;-67
2021/07/08 07:53:43;;;;;;;7.97;4.20;;;;;;;21.69;66.32;100834.59;5045139;28;20053;-67
2021/07/08 07:56:12;;;;;;;8.90;4.60;;;;;;;21.39;67.00;100822.22;5037432;28;20464;-68
2021/07/08 07:58:38;;;;;;;6.65;4.47;;;;;;;21.16;66.87;100815.13;5046042;28;20144;-65
2021/07/08 08:01:04;;;;;;;5.28;4.32;;;;;;;21.24;67.85;100812.25;5034856;28;20076;-67
2021/07/08 08:03:31;;;;;;;4.72;4.18;;;;;;;21.15;67.68;100810.72;5046491;28;20102;-67
2021/07/08 08:08:37;;;;;;;7.20;4.60;;;;;;;20.76;69.46;100821.31;5012698;28;20056;-68
2021/07/08 08:11:04;;;;;;;4.75;3.92;;;;;;;21.08;69.00;100818.03;5040753;28;20106;-68
2021/07/08 08:13:32;;;;;;;6.85;4.13;;;;;;;21.37;67.84;100830.63;5036706;28;20564;-66
2021/07/08 08:15:58;;;;;;;5.35;4.60;;;;;;;21.42;67.68;100824.56;5036934;28;20049;-63
2021/07/08 08:18:25;;;;;;;6.93;4.20;;;;;;;21.58;67.66;100826.97;5037987;28;20041;-65
2021/07/08 08:20:52;;;;;;;4.00;3.20;;;;;;;21.95;66.58;100833.88;5038458;28;20131;-65
2021/07/08 08:23:19;;;;;;;5.53;3.40;;;;;;;22.19;66.36;100840.72;5044101;28;20512;-64
2021/07/08 08:25:45;;;;;;;5.85;3.97;;;;;;;22.02;65.28;100845.69;5035576;28;20107;-67
2021/07/08 08:28:12;;;;;;;5.43;4.25;;;;;;;21.92;65.99;100845.22;5034695;28;20041;-66
2021/07/08 08:30:40;;;;;;;4.70;3.10;;;;;;;22.08;65.58;100855.81;5037574;28;20045;-66
2021/07/08 08:33:06;;;;;;;8.55;4.22;;;;;;;22.04;65.33;100853.69;5046100;28;20492;-67
2021/07/08 08:35:33;;;;;;;5.82;4.47;;;;;;;21.63;66.76;100849.06;5044890;28;20094;-65
2021/07/08 08:37:59;;;;;;;6.45;4.03;;;;;;;21.65;67.15;100848.84;5045479;28;20423;-65
2021/07/08 08:40:26;;;;;;;6.57;3.65;;;;;;;21.76;66.79;100840.91;5045025;28;20045;-67
2021/07/08 08:42:52;;;;;;;9.43;4.20;;;;;;;21.64;67.16;100850.72;5047390;28;20053;-66
2021/07/08 08:45:19;;;;;;;8.38;4.75;;;;;;;21.68;67.30;100854.78;5043162;28;20096;-68
2021/07/08 08:48:04;;;;;;;10.35;5.53;;;;;;;21.60;67.08;100847.56;5044526;28;20822;-66
2021/07/08 08:50:34;;;;;;;7.35;5.35;;;;;;;21.54;66.94;100847.53;5035639;28;20049;-66
2021/07/08 08:53:01;;;;;;;7.55;4.78;;;;;;;21.59;67.50;100850.50;5040836;28;20046;-68
2021/07/08 08:55:28;;;;;;;6.10;4.72;;;;;;;21.78;66.58;100854.38;5044923;28;20049;-67
2021/07/08 08:57:54;;;;;;;5.60;4.03;;;;;;;21.83;65.94;100863.66;5044599;28;20134;-65
2021/07/08 09:00:44;;;;;;;5.82;3.88;;;;;;;21.56;65.55;100856.38;5037653;28;20045;-67
2021/07/08 09:03:14;;;;;;;5.43;3.45;;;;;;;22.10;64.85;100855.59;5041653;28;20041;-67
2021/07/08 09:05:41;;;;;;;3.78;2.97;;;;;;;22.13;64.21;100855.19;5039594;28;20056;-67
2021/07/08 09:08:26;;;;;;;4.78;3.65;;;;;;;22.14;64.10;100855.00;5040721;28;20268;-67
2021/07/08 09:11:08;;;;;;;4.95;3.70;;;;;;;22.04;64.18;100856.41;5034913;28;20049;-65
2021/07/08 09:14:03;;;;;;;5.43;3.30;;;;;;;22.03;61.52;100861.03;5036028;28;20050;-65
2021/07/08 09:16:32;;;;;;;4.47;2.70;;;;;;;22.50;60.29;100861.22;5036129;28;20102;-66
2021/07/08 09:19:03;;;;;;;3.40;2.17;;;;;;;22.81;59.12;100861.44;5042809;28;20059;-67
2021/07/08 09:21:31;;;;;;;7.72;2.75;;;;;;;22.84;59.12;100861.06;5038548;28;20385;-65
2021/07/08 09:24:07;;;;;;;4.72;2.67;;;;;;;22.87;57.67;100863.41;5038675;28;20079;-66
2021/07/08 09:26:33;;;;;;;;;;;;;;;22.61;56.83;100857.84;5042001;28;20053;-63
2021/07/08 09:29:05;;;;;;;3.60;2.30;;;;;;;22.82;56.40;100857.66;5042088;28;19924;-66
2021/07/08 09:31:31;;;;;;;7.55;4.57;;;;;;;22.82;56.35;100863.13;5034858;28;20103;-66
2021/07/08 09:34:14;;;;;;;5.45;3.50;;;;;;;22.69;57.41;100863.13;5044922;28;20134;-66
2021/07/08 09:36:40;;;;;;;7.38;3.47;;;;;;;22.70;57.06;100873.84;5035572;28;20492;-66
2021/07/08 09:39:10;;;;;;;4.75;2.65;;;;;;;22.72;57.23;100868.16;5040142;28;20057;-64
2021/07/08 09:41:46;;;;;;;3.90;2.97;;;;;;;22.72;57.27;100879.94;5039182;28;20052;-66
2021/07/08 09:44:20;;;;;;;4.20;2.90;;;;;;;22.66;57.88;100883.53;5033667;28;20053;-65
2021/07/08 09:46:47;;;;;;;4.55;2.90;;;;;;;22.64;57.90;100884.81;5033720;28;20428;-65
2021/07/08 09:49:14;;;;;;;4.47;2.55;;;;;;;22.34;58.42;100887.03;5034962;28;20205;-65
2021/07/08 09:51:44;;;;;;;5.22;2.50;;;;;;;22.44;59.19;100888.31;5037309;28;20114;-66
2021/07/08 09:54:13;;;;;;;3.65;2.38;;;;;;;22.08;59.08;100888.63;5031929;28;20500;-65
2021/07/08 09:56:45;;;;;;;3.83;2.10;;;;;;;21.88;59.06;100888.47;5041540;28;20075;-64
2021/07/08 09:59:12;;;;;;;3.70;3.25;;;;;;;21.68;60.87;100884.81;5040156;28;20041;-65
2021/07/08 10:01:38;;;;;;;6.75;4.22;;;;;;;21.64;61.51;100896.31;5033732;28;20049;-65
2021/07/08 10:04:05;;;;;;;11.10;4.82;;;;;;;21.80;62.27;100907.78;5041119;28;20053;-66
2021/07/08 10:06:33;;;;;;;8.90;4.68;;;;;;;21.95;61.89;100898.63;5040447;28;20049;-66
2021/07/08 10:08:59;;;;;;;7.80;3.83;;;;;;;21.66;61.92;100895.06;5041392;28;20048;-67
2021/07/08 10:11:27;;;;;;;8.43;4.78;;;;;;;21.63;63.48;100895.50;5041330;28;20119;-66
2021/07/08 10:13:54;;;;;;;4.43;2.90;;;;;;;21.51;62.31;100886.16;5039839;28;20041;-66
2021/07/08 10:16:22;;;;;;;6.22;3.13;;;;;;;21.72;62.47;100888.81;5034264;28;20562;-67
2021/07/08 10:18:49;;;;;;;5.93;3.45;;;;;;;21.85;62.37;100880.69;5043548;28;20103;-64
2021/07/08 10:21:18;;;;;;;12.45;3.70;;;;;;;21.82;61.67;100883.84;5038148;28;20496;-65
2021/07/08 10:23:46;;;;;;;7.05;3.58;;;;;;;21.93;64.27;100878.84;5039745;28;20497;-65
2021/07/08 10:26:12;;;;;;;7.90;4.97;;;;;;;21.91;64.05;100878.22;5035017;28;20111;-67
2021/07/08 10:28:43;;;;;;;8.48;4.18;;;;;;;21.68;63.52;100871.16;5039980;28;20508;-64
2021/07/08 10:31:09;;;;;;;5.82;3.10;;;;;;;21.23;64.66;100872.50;5031753;28;20068;-65
2021/07/08 10:33:36;;;;;;;6.40;3.67;;;;;;;20.84;65.17;100864.84;5041358;28;20048;-65
2021/07/08 10:36:02;;;;;;;6.65;3.78;;;;;;;20.70;66.78;100866.56;5037900;28;20084;-65
2021/07/08 10:38:49;;;;;;;14.48;4.10;;;;;;;20.66;67.41;100866.13;5034971;28;20099;-66
2021/07/08 10:41:45;;;;;;;5.22;3.50;;;;;;;20.47;67.43;100866.75;5040298;28;20045;-66
2021/07/08 10:44:40;;;;;;;7.93;4.20;;;;;;;20.34;67.99;100866.59;5038950;28;20063;-66
2021/07/08 10:47:07;;;;;;;5.25;3.50;;;;;;;20.27;68.13;100868.41;5041325;28;20057;-67
2021/07/08 10:49:39;;;;;;;4.25;2.95;;;;;;;20.27;68.66;100865.69;5038314;28;20049;-65
2021/07/08 10:52:09;;;;;;;4.72;3.30;;;;;;;20.24;69.22;100866.91;5038087;28;20150;-66
2021/07/08 10:54:38;;;;;;;6.28;3.28;;;;;;;20.15;69.51;100857.16;5041331;28;20141;-67
2021/07/08 10:57:05;;;;;;;4.40;3.25;;;;;;;20.22;70.45;100862.69;5036905;28;20044;-67
2021/07/08 10:59:41;;;;;;;3.53;3.13;;;;;;;20.24;70.44;100866.03;5037226;28;23659;-65
2021/07/08 11:02:07;;;;;;;7.55;3.85;;;;;;;20.38;69.98;100862.47;5040632;28;20071;-64
2021/07/08 11:04:46;;;;;;;8.05;3.83;;;;;;;20.39;71.58;100865.00;5032493;28;20088;-66
2021/07/08 11:07:14;;;;;;;5.93;3.53;;;;;;;20.42;71.67;100869.22;5037483;28;20127;-64
2021/07/08 11:09:57;;;;;;;4.40;4.00;;;;;;;20.12;72.80;100869.28;5029141;28;20457;-66
2021/07/08 11:12:31;;;;;;;4.70;4.20;;;;;;;20.11;72.12;100855.84;5030068;28;20551;-65
2021/07/08 11:14:59;;;;;;;6.25;4.05;;;;;;;20.12;73.86;100852.91;5043294;28;20056;-66
2021/07/08 11:17:26;;;;;;;4.32;3.40;;;;;;;20.14;72.70;100850.88;5041578;22;20112;-77
2021/07/08 11:19:57;;;;;;;5.25;4.63;;;;;;;20.02;73.90;100852.41;5016459;28;20085;-76
2021/07/08 11:22:37;;;;;;;5.78;4.50;;;;;;;20.02;74.61;100854.28;5023108;28;20327;-77
2021/07/08 11:25:07;;;;;;;6.55;4.63;;;;;;;19.72;74.51;100842.56;5023985;28;20053;-77
2021/07/08 11:27:38;;;;;;;4.80;4.35;;;;;;;19.67;75.37;100848.59;5027938;28;20572;-79
2021/07/08 11:30:26;;;;;;;9.82;4.72;;;;;;;19.55;76.14;100841.94;5019790;28;20429;-76